Latest Weather Observations for Lucinda

IDQ60801

Issued at 9:22 am EST Saturday 22 September 2018 (issued every 10 minutes, with the page automatically refreshed every 10 minutes)

About weather observations | Map of weather stations | Latest weather observations for QLD | Other Formats
Station Details ID: 032141 Name: LUCINDA POINT Lat: -18.52 Lon: 146.39 Height: 10.0 m
Data from the previous 72 hours. | See also: Recent months at Lucinda
Date/Time
EST
Temp
°C
App
Temp
°C
Dew
Point
°C
Rel
Hum
%
Delta-T
°C
Wind Press
QNH
hPa
Press
MSL
hPa
Rain since
9am
mm
Dir  Spd
km/h
Gust
km/h
Spd
kts
Gust
kts
22/09:00am 23.8 22.0 16.1 62 4.7 SE 20 37 11 20 1021.8 1021.8 0.0
22/08:30am 23.6 21.6 15.4 60 4.9 SSE 20 39 11 21 1021.7 1021.7 0.0
22/08:00am 23.8 20.0 15.8 61 4.8 SE 30 48 16 26 1021.4 1021.4 0.0
22/07:36am 23.6 19.8 14.6 57 5.3 SE 28 48 15 26 1021.1 1021.1 0.0
22/07:30am 23.6 20.3 14.9 58 5.2 SE 26 43 14 23 1021.0 1021.0 0.0
22/07:16am 23.6 19.5 14.9 58 5.2 SE 30 48 16 26 1020.7 1020.7 0.0
22/07:00am 23.7 18.8 14.4 56 5.5 SE 33 50 18 27 1020.4 1020.4 0.0
22/06:30am 23.4 20.2 16.2 64 4.4 SE 28 46 15 25 1020.1 1020.1 0.0
22/06:02am 23.2 19.6 16.3 65 4.2 ESE 30 50 16 27 1019.8 1019.8 0.0
22/06:00am 23.2 20.0 16.3 65 4.2 SE 28 43 15 23 1019.8 1019.8 0.0
22/05:33am 23.1 19.6 16.4 66 4.1 SE 30 50 16 27 1019.4 1019.4 0.0
22/05:30am 23.2 19.5 17.0 68 3.8 SE 32 48 17 26 1019.4 1019.4 0.0
22/05:06am 23.1 19.2 16.4 66 4.1 SE 32 50 17 27 1019.1 1019.1 0.0
22/05:00am 23.2 19.2 16.7 67 4.0 SE 33 50 18 27 1019.0 1019.0 0.0
22/04:36am 23.2 19.2 16.3 65 4.2 SE 32 50 17 27 1018.9 1018.9 0.0
22/04:30am 23.5 19.9 17.3 68 3.8 ESE 32 46 17 25 1019.0 1019.0 0.0
22/04:08am 23.2 19.7 16.5 66 4.1 SE 30 50 16 27 1019.0 1019.0 0.0
22/04:00am 23.4 20.1 16.9 67 4.0 SE 30 46 16 25 1019.0 1019.0 0.0
22/03:39am 23.4 20.7 17.6 70 3.6 SE 28 46 15 25 1019.0 1019.0 0.0
22/03:30am 23.3 20.7 17.7 71 3.5 SE 28 44 15 24 1019.0 1019.0 0.0
22/03:00am 23.0 21.6 17.9 73 3.2 SE 22 37 12 20 1019.2 1019.2 0.0
22/02:30am 23.4 21.7 18.1 72 3.3 SE 24 43 13 23 1019.5 1019.5 0.0
22/02:00am 23.2 21.1 17.2 69 3.7 ESE 24 37 13 20 1019.7 1019.7 0.0
22/01:30am 23.4 21.3 17.2 68 3.8 SE 24 41 13 22 1019.9 1019.9 0.0
22/01:00am 23.4 21.4 17.4 69 3.7 SE 24 41 13 22 1020.4 1020.4 0.0
22/12:30am 23.3 22.1 17.5 70 3.6 SE 20 35 11 19 1020.8 1020.8 0.0
22/12:00am 23.3 22.3 17.5 70 3.6 ESE 19 30 10 16 1021.0 1021.0 0.0
 
Date/Time
EST
Temp
°C
App
Temp
°C
Dew
Point
°C
Rel
Hum
%
Delta-T
°C
Wind Press
QNH
hPa
Press
MSL
hPa
Rain since
9am
mm
Dir  Spd
km/h
Gust
km/h
Spd
kts
Gust
kts
21/11:30pm 23.4 22.1 16.9 67 4.0 ESE 19 30 10 16 1021.0 1021.0 0.0
21/11:00pm 23.3 22.0 16.8 67 4.0 ESE 19 30 10 16 1021.3 1021.3 0.0
21/10:30pm 23.2 21.8 16.5 66 4.1 SE 19 30 10 16 1021.2 1021.2 0.0
21/10:00pm 23.5 23.0 17.9 71 3.5 ESE 17 30 9 16 1021.2 1021.2 0.0
21/09:30pm 23.2 21.6 17.4 70 3.6 ESE 22 35 12 19 1020.8 1020.8 0.0
21/09:00pm 23.3 21.8 17.7 71 3.5 ESE 22 32 12 17 1020.6 1020.6 0.0
21/08:30pm 23.3 21.9 18.0 72 3.3 ESE 22 33 12 18 1020.3 1020.3 0.0
21/08:00pm 23.3 21.3 17.5 70 3.6 ESE 24 35 13 19 1019.9 1019.9 0.0
21/07:30pm 23.3 21.8 17.7 71 3.5 E 22 37 12 20 1019.5 1019.5 0.0
21/07:00pm 23.4 21.7 18.1 72 3.3 ESE 24 37 13 20 1019.0 1019.0 0.0
21/06:30pm 23.4 21.2 17.8 71 3.5 ESE 26 37 14 20 1018.5 1018.5 0.0
21/06:00pm 23.5 20.2 17.9 71 3.5 ESE 32 44 17 24 1017.9 1017.9 0.0
21/05:30pm 23.6 19.6 17.6 69 3.7 ESE 35 48 19 26 1017.5 1017.5 0.0
21/05:00pm 24.0 21.6 18.2 70 3.6 ESE 28 50 15 27 1017.2 1017.2 0.0
21/04:58pm 23.8 20.7 17.5 68 3.9 ESE 30 50 16 27 1017.2 1017.2 0.0
21/04:30pm 24.2 21.6 17.9 68 3.9 ESE 28 44 15 24 1017.1 1017.1 0.0
21/04:00pm 23.8 21.8 17.5 68 3.9 SE 24 39 13 21 1017.1 1017.1 0.0
21/03:30pm 23.9 21.2 17.6 68 3.9 SE 28 44 15 24 1016.9 1016.9 0.0
21/03:00pm 23.7 20.3 16.7 65 4.3 ESE 30 44 16 24 1016.8 1016.8 0.0
21/02:30pm 23.8 19.8 16.3 63 4.6 SE 32 44 17 24 1017.0 1017.0 0.0
21/02:02pm 23.5 20.5 16.8 66 4.1 SE 28 50 15 27 1017.0 1017.0 0.0
21/02:00pm 23.4 21.1 16.7 66 4.1 ESE 24 46 13 25 1017.1 1017.1 0.0
21/01:30pm 24.5 23.3 18.4 69 3.9 SE 22 35 12 19 1017.4 1017.4 0.0
21/01:00pm 24.2 22.7 18.6 71 3.5 SE 24 37 13 20 1017.5 1017.5 0.0
21/12:30pm 24.6 23.7 19.0 71 3.6 SE 22 32 12 17 1018.1 1018.1 0.0
21/12:00pm 23.6 23.0 18.9 75 3.0 SSE 20 28 11 15 1018.3 1018.3 0.0
21/11:30am 23.5 22.0 18.6 74 3.1 SSE 24 35 13 19 1018.6 1018.6 0.0
21/11:00am 24.1 22.8 18.1 69 3.8 SE 22 30 12 16 1019.0 1019.0 0.0
21/10:30am 23.9 21.5 18.3 71 3.5 SE 28 37 15 20 1019.1 1019.1 0.0
21/10:00am 23.8 21.7 18.0 70 3.6 SE 26 37 14 20 1019.2 1019.2 0.0
21/09:30am 23.1 24.4 19.3 79 2.4 SSW 11 13 6 7 1019.0 1019.0 0.0
21/09:00am 22.5 22.8 18.7 79 2.4 SSW 15 19 8 10 1018.8 1018.8 0.0
21/08:30am 22.2 22.2 18.0 77 2.6 SSW 15 17 8 9 1018.6 1018.6 0.0
21/08:00am 21.9 21.6 18.3 80 2.2 SW 17 19 9 10 1018.0 1018.0 0.0
21/07:30am 21.7 21.1 18.5 82 2.0 SW 19 20 10 11 1017.4 1017.4 0.0
21/07:00am 21.6 21.6 19.0 85 1.6 SW 17 20 9 11 1017.1 1017.1 0.0
21/06:30am 21.2 21.5 18.8 86 1.5 SW 15 15 8 8 1016.7 1016.7 0.0
21/06:00am 21.4 22.1 18.8 85 1.6 SW 13 15 7 8 1016.4 1016.4 0.0
21/05:30am 21.3 21.9 18.5 84 1.8 SW 13 17 7 9 1015.8 1015.8 0.0
21/05:00am 21.6 22.2 18.6 83 1.9 SW 13 17 7 9 1015.2 1015.2 0.0
21/04:30am 21.0 21.8 18.2 84 1.7 WSW 11 15 6 8 1014.9 1014.9 0.0
21/04:00am 21.0 20.2 18.4 85 1.6 SW 20 20 11 11 1014.6 1014.6 0.0
21/03:30am 21.0 19.8 18.4 85 1.6 SW 22 24 12 13 1014.3 1014.3 0.0
21/03:00am 20.7 19.8 18.1 85 1.6 SW 20 22 11 12 1014.3 1014.3 0.0
21/02:30am 21.5 20.9 18.9 85 1.6 SW 20 22 11 12 1014.1 1014.1 0.0
21/02:00am 21.5 22.0 19.2 87 1.5 SW 15 17 8 9 1014.2 1014.2 0.0
21/01:30am 22.2 23.5 20.1 88 1.4 SW 13 15 7 8 1014.6 1014.6 0.0
21/01:00am 21.9 23.3 19.5 86 1.5 SW 11 13 6 7 1015.0 1015.0 0.0
21/12:30am 21.7 22.5 19.1 85 1.6 SW 13 15 7 8 1015.2 1015.2 0.0
21/12:00am 22.1 23.9 19.5 85 1.7 WSW 9 11 5 6 1015.4 1015.4 0.0
 
Date/Time
EST
Temp
°C
App
Temp
°C
Dew
Point
°C
Rel
Hum
%
Delta-T
°C
Wind Press
QNH
hPa
Press
MSL
hPa
Rain since
9am
mm
Dir  Spd
km/h
Gust
km/h
Spd
kts
Gust
kts
20/11:30pm 23.3 25.6 19.5 79 2.4 SSW 6 11 3 6 1015.6 1015.6 0.0
20/11:00pm 23.2 25.1 18.5 75 3.0 S 6 9 3 5 1015.5 1015.5 0.0
20/10:30pm 23.2 25.0 18.3 74 3.1 SSE 6 9 3 5 1015.7 1015.7 0.0
20/10:00pm 23.3 25.1 18.4 74 3.1 SE 6 7 3 4 1015.7 1015.7 0.0
20/09:30pm 23.4 25.2 18.3 73 3.2 E 6 7 3 4 1015.6 1015.6 0.0
20/09:00pm 23.5 25.1 18.2 72 3.3 ENE 7 9 4 5 1015.7 1015.7 0.0
20/08:30pm 23.6 25.0 18.7 74 3.1 NNE 9 13 5 7 1015.5 1015.5 0.0
20/08:00pm 23.5 23.9 18.2 72 3.3 N 13 17 7 9 1015.2 1015.2 0.0
20/07:30pm 23.6 23.8 18.5 73 3.2 N 15 20 8 11 1014.7 1014.7 0.0
20/07:00pm 23.5 22.7 17.9 71 3.5 N 19 22 10 12 1014.4 1014.4 0.0
20/06:30pm 23.5 22.3 17.5 69 3.7 NNE 20 26 11 14 1014.3 1014.3 0.0
20/06:00pm 23.7 22.2 17.7 69 3.7 NNE 22 26 12 14 1013.9 1013.9 0.0
20/05:30pm 23.8 22.0 17.8 69 3.7 NNE 24 28 13 15 1013.5 1013.5 0.0
20/05:00pm 23.8 22.4 18.0 70 3.6 NNE 22 26 12 14 1013.3 1013.3 0.0
20/04:30pm 23.8 22.2 17.5 68 3.9 NNE 22 26 12 14 1013.0 1013.0 0.0
20/04:00pm 23.9 22.9 17.9 69 3.8 NNE 20 24 11 13 1012.8 1012.8 0.0
20/03:30pm 23.9 22.9 17.6 68 3.9 NNE 19 22 10 12 1012.9 1012.9 0.0
20/03:00pm 24.0 23.8 17.5 67 4.0 ENE 15 20 8 11 1013.0 1013.0 0.0
20/02:30pm 24.0 24.7 18.0 69 3.8 NE 11 15 6 8 1013.4 1013.4 0.0
20/02:00pm 25.2 26.9 18.4 66 4.3 ESE 7 11 4 6 1013.8 1013.8 0.0
20/01:30pm 25.3 27.1 18.7 67 4.2 SE 7 9 4 5 1014.2 1014.2 0.0
20/01:00pm 24.0 25.2 18.2 70 3.6 S 9 15 5 8 1014.5 1014.5 0.0
20/12:30pm 23.7 24.0 17.9 70 3.6 S 13 15 7 8 1015.0 1015.0 0.0
20/12:00pm 23.7 24.3 17.7 69 3.7 S 11 15 6 8 1015.6 1015.6 0.0
20/11:30am 23.7 23.8 17.4 68 3.9 S 13 15 7 8 1015.9 1015.9 0.0
20/11:00am 23.2 23.1 17.0 68 3.8 SSW 13 15 7 8 1016.1 1016.1 0.0
20/10:30am 23.3 23.7 17.3 69 3.7 SSW 11 15 6 8 1016.2 1016.2 0.0
20/10:00am 22.9 23.4 17.4 71 3.4 SSW 11 15 6 8 1016.3 1016.3 0.0
20/09:30am 22.6 22.8 17.7 74 3.0 SSW 13 15 7 8 1016.2 1016.2 0.0
20/09:00am 22.4 22.4 18.2 77 2.6 SSW 15 17 8 9 1016.2 1016.2 0.0
20/08:30am 21.5 21.3 17.5 78 2.5 SW 15 19 8 10 1016.2 1016.2 0.0
20/08:00am 21.0 20.3 17.4 80 2.2 SW 17 20 9 11 1015.9 1015.9 0.0
20/07:30am 20.4 19.6 17.0 81 2.1 WSW 17 20 9 11 1015.7 1015.7 0.0
20/07:00am 19.8 19.0 17.0 84 1.7 WSW 17 20 9 11 1015.4 1015.4 0.0
20/06:30am 19.8 18.7 17.2 85 1.6 WSW 19 20 10 11 1015.1 1015.1 0.0
20/06:00am 20.0 18.7 17.2 84 1.7 SW 20 22 11 12 1014.6 1014.6 0.0
20/05:30am 20.3 19.2 17.7 85 1.6 SW 20 22 11 12 1014.2 1014.2 0.0
20/05:00am 20.3 19.3 17.5 84 1.7 WSW 19 20 10 11 1014.0 1014.0 0.0
20/04:30am 20.4 19.9 17.8 85 1.6 WSW 17 20 9 11 1013.7 1013.7 0.0
20/04:00am 21.3 23.6 18.5 84 1.8 WSW 4 9 2 5 1013.5 1013.5 0.0
20/03:30am 21.0 22.2 18.2 84 1.7 WSW 9 15 5 8 1013.5 1013.5 0.0
20/03:00am 21.5 23.2 18.5 83 1.9 SSW 7 9 4 5 1013.6 1013.6 0.0
20/02:30am 21.4 22.7 18.4 83 1.9 SW 9 11 5 6 1013.8 1013.8 0.0
20/02:00am 21.4 22.6 18.2 82 2.0 SW 9 11 5 6 1014.1 1014.1 0.0
20/01:30am 21.6 22.5 18.4 82 2.0 SW 11 13 6 7 1014.5 1014.5 0.0
20/01:00am 21.0 21.3 18.0 83 1.9 SW 13 17 7 9 1014.8 1014.8 0.0
20/12:30am 21.8 22.6 19.0 84 1.8 SW 13 17 7 9 1015.4 1015.4 0.0
20/12:00am 22.4 23.5 18.8 80 2.3 SW 11 15 6 8 1015.5 1015.5 0.0
 
Date/Time
EST
Temp
°C
App
Temp
°C
Dew
Point
°C
Rel
Hum
%
Delta-T
°C
Wind Press
QNH
hPa
Press
MSL
hPa
Rain since
9am
mm
Dir  Spd
km/h
Gust
km/h
Spd
kts
Gust
kts
19/11:30pm 23.1 25.0 17.6 71 3.4 WNW 4 7 2 4 1015.8 1015.8 0.0
19/11:00pm 23.2 24.6 17.4 70 3.6 WNW 6 9 3 5 1015.9 1015.9 0.0
19/10:30pm 23.4 24.4 16.9 67 4.0 NNE 7 11 4 6 1016.0 1016.0 0.0
19/10:00pm 23.5 23.8 17.0 67 4.0 NNE 11 13 6 7 1016.1 1016.1 0.0
19/09:30pm 23.6 23.9 17.1 67 4.0 NNE 11 13 6 7 1016.0 1016.0 0.0
19/09:00pm 23.7 24.0 17.0 66 4.1 NE 11 13 6 7 1015.7 1015.7 0.0
19/08:30pm 23.6 23.9 16.9 66 4.1 N 11 15 6 8 1015.3 1015.3 0.0
19/08:00pm 23.7 23.9 16.7 65 4.3 N 11 17 6 9 1014.9 1014.9 0.0
19/07:30pm 23.7 23.3 17.2 67 4.0 NNE 15 19 8 10 1014.7 1014.7 0.0
19/07:00pm 23.7 22.9 17.0 66 4.1 NNE 17 19 9 10 1014.4 1014.4 0.0
19/06:30pm 23.7 23.3 17.2 67 4.0 NE 15 19 8 10 1014.3 1014.3 0.0
19/06:00pm 23.8 23.2 16.6 64 4.4 NE 15 19 8 10 1014.1 1014.1 0.0
19/05:30pm 24.2 23.6 16.7 63 4.6 ENE 15 20 8 11 1014.0 1014.0 0.0
19/05:00pm 24.3 23.5 17.1 64 4.5 ENE 17 24 9 13 1013.9 1013.9 0.0
19/04:30pm 24.8 24.0 16.2 58 5.3 E 15 20 8 11 1013.5 1013.5 0.0
19/04:00pm 24.5 23.8 16.5 61 4.9 E 15 24 8 13 1013.4 1013.4 0.0
19/03:30pm 24.5 23.5 16.5 61 4.9 E 17 28 9 15 1013.3 1013.3 0.0
19/03:00pm 24.4 23.3 17.4 65 4.4 E 19 30 10 16 1013.5 1013.5 0.0
19/02:30pm 24.6 23.6 17.6 65 4.4 E 19 26 10 14 1013.7 1013.7 0.0
19/02:00pm 24.9 24.1 18.1 66 4.3 E 19 28 10 15 1014.1 1014.1 0.0
19/01:30pm 24.8 24.2 17.5 64 4.6 E 17 24 9 13 1014.6 1014.6 0.0
19/01:00pm 24.6 23.5 17.3 64 4.5 E 19 30 10 16 1015.1 1015.1 0.0
19/12:30pm 24.9 24.4 17.9 65 4.4 E 17 26 9 14 1015.6 1015.6 0.0
19/12:00pm 24.7 24.2 17.7 65 4.4 E 17 28 9 15 1016.1 1016.1 0.0
19/11:30am 25.1 24.3 18.1 65 4.4 E 19 33 10 18 1016.5 1016.5 0.0
19/11:00am 25.0 24.2 18.0 65 4.4 E 19 32 10 17 1017.0 1017.0 0.0
19/10:30am 24.8 24.1 18.3 67 4.1 E 19 30 10 16 1017.2 1017.2 0.0
19/10:00am 24.7 23.8 18.2 67 4.1 E 20 28 11 15 1017.5 1017.5 0.0
19/09:30am 24.6 23.7 18.1 67 4.1 E 20 32 11 17 1017.5 1017.5 0.0

Other Formats:

Comma delimited format used in spreadsheet applications
http://www.bom.gov.au/fwo/IDQ60801/IDQ60801.94295.axf

JavaScript Object Notation format (JSON) in row-major order
http://www.bom.gov.au/fwo/IDQ60801/IDQ60801.94295.json